Wood Ridge, New Jersey
Current Conditions -  °F | °C
As of 11:51 AM on Tuesday 27 Jan 2015 (Local Time) from KTEB Reporting Station
Light Snow Light Snow  
Wind Chill: 11°   Ceiling: 2600
Heat Index: 24°   Visibility: 3mi
Dew Point: 16°   Wind: 15mph
Humidity: 71%   Direction: 320°NW
Pressure: 29.68"   Gusts: 23mph
Location:  40.85°N, 74.09°W
Report Text: KTEB 271651Z 32013G20KT 3SM -SN BR SCT022 BKN026 OVC046 M04/M09 A2968 RMK AO2 SLP052 P0000 T10441089
Loading
Personal Weather Stations






























Interactive Weather Map New forecast layout! Learn more

10-Day Weather Forecast

Advertisements
Track Severe Weather on mobile